createdAt,value
2022-09-14T05:40:27.338Z,24.36
2022-09-14T05:42:58.483Z,24.39
2022-09-14T05:48:46.760Z,24.56
2022-09-14T05:51:15.793Z,24.32
2022-09-14T05:56:33.617Z,24.28
2022-09-14T05:59:01.082Z,24.26
2022-09-14T06:01:30.718Z,24.62
2022-09-14T06:03:59.203Z,24.95
2022-09-14T06:06:26.960Z,25.17
2022-09-14T06:08:53.998Z,25.10
2022-09-14T06:11:21.494Z,24.97
2022-09-14T06:13:49.116Z,25.06
2022-09-14T06:16:16.910Z,25.18
2022-09-14T06:18:45.728Z,25.32
2022-09-14T06:21:12.384Z,25.24
2022-09-14T06:26:33.339Z,25.37
2022-09-14T06:29:00.152Z,25.59
2022-09-14T06:31:27.813Z,25.79
2022-09-14T06:33:54.369Z,25.83
2022-09-14T06:36:20.859Z,25.82
2022-09-14T06:38:47.487Z,26.02
2022-09-14T06:41:14.420Z,26.08
2022-09-14T06:43:41.086Z,26.02
2022-09-14T06:46:08.572Z,25.31
2022-09-14T06:48:35.341Z,25.20
2022-09-14T06:51:02.118Z,25.17
2022-09-14T06:53:31.483Z,24.89
2022-09-14T06:55:58.068Z,24.89
2022-09-14T06:58:24.884Z,23.83
2022-09-14T07:00:51.746Z,24.38
2022-09-14T07:03:21.106Z,24.61
2022-09-14T07:05:47.610Z,24.04
2022-09-14T07:08:14.600Z,24.03
2022-09-14T07:10:43.372Z,24.05
2022-09-14T07:13:10.898Z,24.21
2022-09-14T07:15:40.488Z,24.05
2022-09-14T07:18:08.046Z,24.33
2022-09-14T07:20:35.296Z,23.95
2022-09-14T07:23:02.341Z,24.12
2022-09-14T07:25:31.497Z,23.83
2022-09-14T07:28:07.051Z,24.20
2022-09-14T07:30:39.879Z,23.84
2022-09-14T07:33:08.919Z,23.38
2022-09-14T07:35:39.086Z,23.97
2022-09-14T07:38:07.874Z,22.91
2022-09-14T07:40:38.397Z,23.27
2022-09-14T07:43:05.050Z,22.96
2022-09-14T07:45:34.623Z,23.11
2022-09-14T07:48:01.219Z,22.95
2022-09-14T07:50:29.581Z,23.25
2022-09-14T07:52:57.209Z,23.30
2022-09-14T07:55:24.046Z,22.94
2022-09-14T08:00:48.641Z,22.17
2022-09-14T08:03:17.873Z,21.92
2022-09-14T08:05:44.839Z,22.03
2022-09-14T08:08:12.193Z,21.76
2022-09-14T08:10:39.705Z,21.87
2022-09-14T08:16:00.603Z,21.89
2022-09-14T08:18:27.697Z,21.79
2022-09-14T08:20:54.652Z,21.80
2022-09-14T08:23:22.080Z,22.12
2022-09-14T08:25:50.127Z,22.33
2022-09-14T08:28:18.718Z,23.02
2022-09-14T08:30:45.529Z,23.29
2022-09-14T08:33:17.511Z,23.60
2022-09-14T08:36:03.412Z,24.29
2022-09-14T08:38:33.398Z,25.01
2022-09-14T08:41:00.805Z,25.40
2022-09-14T08:43:28.176Z,25.80
2022-09-14T08:45:56.757Z,25.80
2022-09-14T08:48:23.582Z,26.07
2022-09-14T08:50:51.467Z,26.37
2022-09-14T08:53:18.643Z,26.44
2022-09-14T08:55:45.566Z,26.24
2022-09-14T08:58:12.429Z,26.08
2022-09-14T09:00:43.810Z,26.34
2022-09-14T09:03:10.652Z,26.44
2022-09-14T09:05:38.121Z,26.46
2022-09-14T09:08:06.955Z,26.49
2022-09-14T09:13:43.174Z,26.53
2022-09-14T09:18:50.584Z,26.23
2022-09-14T09:24:38.964Z,26.44
2022-09-14T09:27:06.624Z,26.54
2022-09-14T09:29:36.086Z,26.63
2022-09-14T09:32:04.067Z,26.62
2022-09-14T09:34:31.991Z,26.86
2022-09-14T09:36:59.545Z,26.59
2022-09-14T09:39:27.312Z,26.44
2022-09-14T09:41:54.085Z,25.83
2022-09-14T09:44:20.987Z,25.77
2022-09-14T09:46:55.834Z,25.92
2022-09-14T09:49:24.605Z,26.20
2022-09-14T09:51:52.099Z,26.37
2022-09-14T09:54:18.885Z,26.22
2022-09-14T09:56:46.555Z,26.30
2022-09-14T09:59:15.568Z,26.74
2022-09-14T10:01:44.364Z,26.89
2022-09-14T10:04:11.590Z,27.21
2022-09-14T10:06:42.130Z,26.99
2022-09-14T10:09:09.493Z,26.67
2022-09-14T10:11:38.167Z,26.76
2022-09-14T10:16:47.517Z,26.88
2022-09-14T10:19:14.345Z,27.13
2022-09-14T10:21:42.084Z,27.39
2022-09-14T10:24:10.682Z,26.84
2022-09-14T10:26:37.673Z,26.80
2022-09-14T10:29:04.579Z,27.40
2022-09-14T10:31:45.357Z,27.34
2022-09-14T10:34:16.777Z,27.25
2022-09-14T10:36:48.109Z,27.12
2022-09-14T10:39:15.130Z,27.38
2022-09-14T10:41:42.036Z,27.29
2022-09-14T10:46:51.277Z,26.09
2022-09-14T10:49:17.945Z,26.37
2022-09-14T10:51:46.325Z,26.65
2022-09-14T10:54:14.243Z,26.83
2022-09-14T10:56:41.863Z,27.04
2022-09-14T10:59:12.998Z,27.10
2022-09-14T11:01:40.424Z,27.06
2022-09-14T11:04:09.539Z,27.08
2022-09-14T11:06:40.260Z,26.96
2022-09-14T11:12:25.894Z,26.89
2022-09-14T11:14:57.329Z,27.53
2022-09-14T11:17:26.342Z,27.29
2022-09-14T11:19:57.970Z,27.56
2022-09-14T11:22:27.737Z,27.49
2022-09-14T11:24:54.540Z,26.11
2022-09-14T11:27:21.270Z,26.36
2022-09-14T11:29:49.728Z,26.67
2022-09-14T11:32:21.304Z,26.51
2022-09-14T11:34:48.864Z,27.29
2022-09-14T11:37:17.421Z,26.07
2022-09-14T11:39:44.954Z,26.39
2022-09-14T11:42:11.628Z,26.73
2022-09-14T11:44:40.625Z,27.07
2022-09-14T11:47:08.475Z,27.13
2022-09-14T11:49:37.608Z,27.51
2022-09-14T11:52:04.292Z,27.28
2022-09-14T11:54:32.353Z,27.50
2022-09-14T11:57:02.814Z,27.65
2022-09-14T11:59:32.710Z,26.68
2022-09-14T12:01:59.283Z,26.43
2022-09-14T12:04:26.260Z,26.36
2022-09-14T12:06:55.324Z,26.59
2022-09-14T12:09:22.714Z,26.43
2022-09-14T12:11:49.492Z,25.92
2022-09-14T12:14:16.706Z,26.80
2022-09-14T12:19:25.519Z,27.19
2022-09-14T12:21:53.244Z,27.05
2022-09-14T12:24:21.965Z,27.56
2022-09-14T12:26:51.161Z,27.06
2022-09-14T12:29:18.843Z,27.04
2022-09-14T12:31:54.755Z,27.38
2022-09-14T12:34:27.551Z,27.75
2022-09-14T12:36:56.716Z,27.54
2022-09-14T12:39:26.624Z,27.53
2022-09-14T12:44:35.200Z,26.65
2022-09-14T12:47:03.708Z,26.96
2022-09-14T12:49:30.691Z,26.93
2022-09-14T12:51:58.518Z,27.16
2022-09-14T12:54:38.473Z,27.28
2022-09-14T12:57:06.109Z,27.45
2022-09-14T12:59:33.153Z,27.44
2022-09-14T13:01:59.996Z,27.72
2022-09-14T13:04:33.268Z,27.65
2022-09-14T13:07:01.694Z,27.35
2022-09-14T13:09:30.789Z,27.44
2022-09-14T13:11:58.377Z,27.71
2022-09-14T13:14:25.945Z,27.51
2022-09-14T13:16:52.961Z,27.56
2022-09-14T13:22:00.260Z,28.00
2022-09-14T13:24:36.783Z,28.12
2022-09-14T13:27:04.756Z,28.38
2022-09-14T13:29:34.822Z,28.41
2022-09-14T13:32:04.172Z,28.22
2022-09-14T13:34:34.949Z,28.46
2022-09-14T13:37:02.253Z,28.39
2022-09-14T13:39:29.041Z,28.34
2022-09-14T13:41:56.791Z,28.41
2022-09-14T13:44:26.492Z,28.53
2022-09-14T13:46:53.838Z,28.30
2022-09-14T13:49:23.159Z,28.38
2022-09-14T13:51:49.997Z,27.67
2022-09-14T13:54:17.356Z,27.84
2022-09-14T13:56:45.100Z,28.16
2022-09-14T13:59:14.628Z,27.89
2022-09-14T14:04:24.721Z,27.63
2022-09-14T14:06:51.722Z,27.63
2022-09-14T14:09:20.622Z,27.59
2022-09-14T14:11:48.274Z,26.68
2022-09-14T14:14:15.452Z,27.16
2022-09-14T14:16:43.625Z,26.43
2022-09-14T14:28:38.484Z,26.84
2022-09-14T14:31:08.718Z,26.60
2022-09-14T14:33:44.709Z,27.02
2022-09-14T14:42:34.454Z,27.15
2022-09-14T14:45:09.732Z,27.25
2022-09-14T14:47:38.668Z,27.46
2022-09-14T14:50:05.834Z,27.11
2022-09-14T14:52:32.945Z,26.85
2022-09-14T14:55:06.928Z,27.44
2022-09-14T14:57:34.265Z,28.05
2022-09-14T15:00:07.731Z,28.01
2022-09-14T15:02:38.526Z,28.29
2022-09-14T15:05:05.986Z,28.22
2022-09-14T15:07:37.751Z,28.20
2022-09-14T15:10:07.698Z,27.79
2022-09-14T15:12:38.077Z,27.97
2022-09-14T15:15:10.232Z,27.94
2022-09-14T15:17:41.992Z,28.00
2022-09-14T15:20:14.581Z,27.49
2022-09-14T15:25:24.287Z,27.17
2022-09-14T15:27:51.448Z,26.72
2022-09-14T15:30:18.109Z,26.38
2022-09-14T15:32:44.970Z,26.92
2022-09-14T15:35:11.587Z,26.82
2022-09-14T15:37:40.060Z,26.72
2022-09-14T15:40:07.079Z,26.73
2022-09-14T15:42:37.716Z,26.47
2022-09-14T15:48:13.541Z,26.88
2022-09-14T15:50:40.834Z,25.87
2022-09-14T15:53:07.495Z,26.67
2022-09-14T15:55:34.598Z,26.88
2022-09-14T15:58:02.927Z,27.15
2022-09-14T16:00:31.153Z,26.88
2022-09-14T16:03:06.887Z,25.79
2022-09-14T16:05:36.211Z,26.36
2022-09-14T16:08:02.863Z,26.70
2022-09-14T16:10:32.810Z,26.26
2022-09-14T16:19:05.878Z,25.68
2022-09-14T16:21:33.088Z,26.26
2022-09-14T16:23:59.608Z,26.92
2022-09-14T16:26:27.493Z,27.12
2022-09-14T16:28:54.220Z,27.26
2022-09-14T16:31:21.218Z,27.11
2022-09-14T16:33:47.904Z,27.07
2022-09-14T16:36:16.628Z,27.41
2022-09-14T16:41:27.064Z,27.77
2022-09-14T16:43:54.892Z,27.69
2022-09-14T16:46:21.977Z,27.82
2022-09-14T16:48:48.987Z,27.54
2022-09-14T16:51:20.308Z,27.11
2022-09-14T16:59:43.142Z,26.85
2022-09-14T17:02:14.137Z,27.39
2022-09-14T17:04:40.734Z,27.10
2022-09-14T17:07:17.280Z,26.48
2022-09-14T17:12:33.490Z,26.19
2022-09-14T17:18:13.555Z,26.58
2022-09-14T17:20:41.577Z,26.41
2022-09-14T17:23:10.272Z,26.51
2022-09-14T17:25:37.590Z,25.96
2022-09-14T17:28:10.435Z,25.99
2022-09-14T17:30:37.214Z,26.04
2022-09-14T17:33:04.051Z,26.34
2022-09-14T17:35:31.480Z,26.24
2022-09-14T17:50:28.769Z,25.38
2022-09-14T17:52:58.622Z,25.73
2022-09-14T17:55:25.877Z,25.92
2022-09-14T18:01:02.412Z,26.21
2022-09-14T18:03:31.637Z,26.35
2022-09-14T18:05:59.343Z,26.34
2022-09-14T18:08:25.872Z,25.46
2022-09-14T18:10:52.332Z,25.51
2022-09-14T18:13:18.881Z,25.00
2022-09-14T18:15:46.530Z,24.76
2022-09-14T18:18:13.704Z,24.81
2022-09-14T18:20:40.734Z,24.94
2022-09-14T18:25:50.631Z,24.85
2022-09-14T18:28:17.430Z,24.70
2022-09-14T18:30:44.202Z,24.24
2022-09-14T18:33:10.996Z,24.47
2022-09-14T18:35:38.389Z,24.45
2022-09-14T18:38:05.006Z,24.56
2022-09-14T18:40:32.746Z,24.26
2022-09-14T18:43:01.575Z,24.64
2022-09-14T18:45:28.099Z,24.36
2022-09-14T18:47:54.737Z,24.56
2022-09-14T18:50:23.420Z,24.51
2022-09-14T18:52:50.282Z,24.34
2022-09-14T18:55:17.478Z,24.12
2022-09-14T18:57:44.008Z,23.60
2022-09-14T19:00:18.343Z,22.44
2022-09-14T19:02:45.230Z,21.95
2022-09-14T19:05:14.765Z,22.28
2022-09-14T19:07:41.353Z,22.60
2022-09-14T19:10:11.448Z,22.19
2022-09-14T19:12:38.736Z,21.51
2022-09-14T19:15:05.568Z,20.67
2022-09-14T19:17:35.530Z,19.78
2022-09-14T19:20:04.388Z,19.87
2022-09-14T19:22:31.047Z,20.12
2022-09-14T19:25:08.060Z,20.23
2022-09-14T19:31:02.072Z,21.26
2022-09-14T19:33:28.846Z,21.92
2022-09-14T19:35:57.943Z,22.14
2022-09-14T19:38:33.404Z,22.61
2022-09-14T19:41:01.162Z,22.52
2022-09-14T19:43:30.521Z,22.55
2022-09-14T19:46:00.497Z,22.57
2022-09-14T19:48:27.903Z,22.48
2022-09-14T19:50:56.840Z,22.66
2022-09-14T19:53:26.986Z,22.45
2022-09-14T19:58:53.367Z,21.45
2022-09-14T20:01:20.903Z,20.54
2022-09-14T20:04:02.676Z,21.29
2022-09-14T20:06:35.546Z,21.97
2022-09-14T20:09:11.513Z,22.31
2022-09-14T20:20:36.889Z,22.61
2022-09-14T20:23:04.363Z,22.73
2022-09-14T20:31:53.092Z,21.55
2022-09-14T20:41:03.798Z,19.86
2022-09-14T20:43:31.510Z,19.48
2022-09-14T20:46:02.377Z,19.37
2022-09-14T20:48:30.847Z,19.47
2022-09-14T20:50:57.880Z,19.71
2022-09-14T20:59:47.823Z,20.23
2022-09-14T21:11:27.440Z,21.44
2022-09-14T21:13:58.197Z,21.92
2022-09-14T21:16:30.478Z,22.13
2022-09-14T21:19:09.589Z,21.43
2022-09-14T21:21:50.055Z,21.37
2022-09-14T21:27:13.039Z,21.62
2022-09-14T21:29:50.547Z,20.86
2022-09-14T21:32:24.556Z,21.34
2022-09-14T21:34:51.029Z,21.58
2022-09-14T21:37:21.616Z,21.59
2022-09-14T21:39:50.372Z,21.94
2022-09-14T21:42:17.364Z,21.97
2022-09-14T21:44:44.285Z,21.80
2022-09-14T21:47:13.804Z,21.27
2022-09-14T21:49:40.502Z,21.29
2022-09-14T21:52:07.181Z,20.53
2022-09-14T21:54:33.866Z,20.04
2022-09-14T21:57:00.716Z,19.74
2022-09-14T21:59:27.447Z,20.15
2022-09-14T22:01:54.456Z,20.88
2022-09-14T22:04:21.890Z,20.84
2022-09-14T22:06:49.430Z,20.81
2022-09-14T22:09:17.668Z,19.88
2022-09-14T22:11:44.274Z,19.89
2022-09-14T22:14:10.979Z,19.60
2022-09-14T22:16:38.323Z,19.28
2022-09-14T22:19:05.037Z,19.28
2022-09-14T22:21:31.934Z,19.13
2022-09-14T22:23:58.648Z,19.18
2022-09-14T22:26:28.948Z,19.02
2022-09-14T22:28:56.317Z,19.25
2022-09-14T22:31:23.758Z,19.89
2022-09-14T22:33:52.653Z,20.27
2022-09-14T22:36:19.473Z,20.92
2022-09-14T22:41:52.586Z,21.68
2022-09-14T22:44:19.465Z,20.34
2022-09-14T22:46:46.250Z,20.10
2022-09-14T22:49:20.241Z,19.98
2022-09-14T22:51:48.631Z,20.04
2022-09-14T22:54:17.543Z,19.74
2022-09-14T22:56:44.599Z,19.73
2022-09-14T22:59:12.111Z,20.28
2022-09-14T23:01:38.937Z,20.64
2022-09-14T23:04:08.702Z,20.92
2022-09-14T23:09:26.189Z,20.36
2022-09-14T23:11:53.021Z,20.95
2022-09-14T23:14:21.279Z,21.03
2022-09-14T23:16:48.113Z,20.85
2022-09-14T23:19:14.703Z,21.24
2022-09-14T23:21:41.725Z,21.74
2022-09-14T23:24:08.386Z,21.88
2022-09-14T23:26:37.134Z,22.00
2022-09-14T23:29:04.541Z,21.92
2022-09-14T23:31:32.075Z,21.76
2022-09-14T23:34:03.922Z,20.65
2022-09-14T23:36:30.542Z,21.36
2022-09-14T23:38:57.393Z,21.72
2022-09-14T23:41:24.187Z,21.99
2022-09-14T23:43:51.612Z,21.47
2022-09-14T23:46:20.014Z,21.60
2022-09-14T23:48:47.423Z,22.16
2022-09-14T23:51:14.814Z,22.04
2022-09-14T23:56:25.863Z,22.24
2022-09-14T23:58:53.044Z,21.94
